Shinglehouse, PA (16748)

10:26 AM EDT on May 30, 2015 (GMT -0400)
Prosser | | Change Station
CLOSE
Current Station
Personal Weather Station
Location: Portville, NY
Elevation: 1457 ft
Nearby Weather Stations

Elev 1457 ft 42.01 °N, 78.30 °W | Updated 5 seconds ago

Partly Cloudy
Partly Cloudy
77.0 °F
Feels Like 79 °F
N
2.0
Wind Variable Wind from South
Gusts 9.0 mph

Today
High -- | Low -- °F
--% Chance of Precip.
Yesterday
High -- | Low -- °F
Precip. -- in
5:40 AM 8:39 PM
Waxing Gibbous, 90% visible
Pressure 30.10 in
Visibility 10.0 miles
Clouds Few 2600 ft
Heat Index 79 °F
Dew Point 66 °F
Humidity 69%
Rainfall 0.00 in
Snow Depth Not available.
UV 6 out of 12
Pollen 2.70 out of 12
Air Quality Not available.
Flu Activity Sporadic
METAR KELZ 301356Z AUTO 20012G17KT 10SM FEW026 24/17 A3014 RMK AO2 SLP192 T02390167

More Conditions Fewer Conditions

Pressure 30.10 in
Visibility 10.0 miles
Clouds Few 2600 ft
Heat Index 79 °F
Dew Point 66 °F
Humidity 69%
Rainfall 0.00 in
Snow Depth Not available.
UV 6 out of 12
Pollen 2.70 out of 12
Air Quality Not available.
Flu Activity Sporadic
METAR KELZ 301356Z AUTO 20012G17KT 10SM FEW026 24/17 A3014 RMK AO2 SLP192 T02390167

More Conditions Fewer Conditions

10-Day Weather Forecast

Almanac

Astronomy

May. 30, 2015 Rise Set
Actual Time
Civil Twilight
Nautical Twilight
Astronomical Twilight
Moon
Length of Visible Light
Length of Day
Tomorrow will be .
, % of the Moon is Illuminated

Today's Extremes

State Highs State Lows

Community

WunderPhotos

Upload Photos

1,825,519 photos uploaded!

WunderBlogs® & News

Nearby

Air Quality

  Air Quality AQ Index Pollutant
Not available.

Snow Depth

Station Depth Elevation

Earthquake Activity

City Distance Mag. Time & Date
Minimum magnitude displayed is 2.5.

Coastal Water Temperatures

Place Temperature

Stations

Nearby Weather Stations

Station Location Temp. Windchill Dew Point Humidity Wind Precip. Elev Updated Type